Time,TemperatureF,DewpointF,PressureIn,WindDirection,WindDirectionDegrees,WindSpeedMPH,WindSpeedGustMPH,Humidity,HourlyPrecipIn,Conditions,Clouds,dailyrainin,SoftwareType,DateUTC
2013-05-06 00:02:00,33.3,30.4,30.19,South,180,2.0,2.0,89,0.00,,,0.00,meteohub,2013-05-06 06:02:00,
2013-05-06 00:07:00,33.3,30.4,30.19,South,180,2.0,2.0,89,0.00,,,0.00,meteohub,2013-05-06 06:07:00,
2013-05-06 00:12:00,33.3,30.0,30.18,West,270,3.0,3.0,88,0.00,,,0.00,meteohub,2013-05-06 06:12:00,
2013-05-06 00:17:00,33.3,29.5,30.18,NW,315,4.0,4.0,86,0.00,,,0.00,meteohub,2013-05-06 06:17:00,
2013-05-06 00:22:00,33.4,29.7,30.17,SW,225,2.0,4.0,86,0.00,,,0.00,meteohub,2013-05-06 06:22:00,
2013-05-06 00:27:00,33.6,29.7,30.17,SW,225,3.0,4.0,85,0.00,,,0.00,meteohub,2013-05-06 06:27:00,
2013-05-06 00:32:00,33.6,29.7,30.17,SE,135,2.0,4.0,85,0.00,,,0.00,meteohub,2013-05-06 06:32:00,
2013-05-06 00:37:00,33.1,29.3,30.18,East,90,2.0,3.0,86,0.00,,,0.00,meteohub,2013-05-06 06:37:00,
2013-05-06 00:42:00,32.7,29.3,30.18,South,180,2.0,3.0,87,0.00,,,0.00,meteohub,2013-05-06 06:42:00,
2013-05-06 00:47:00,32.5,29.3,30.18,SW,225,2.0,3.0,88,0.00,,,0.00,meteohub,2013-05-06 06:47:00,
2013-05-06 00:52:00,32.5,29.3,30.19,SW,225,3.0,3.0,88,0.00,,,0.00,meteohub,2013-05-06 06:52:00,
2013-05-06 00:57:00,32.9,30.0,30.17,South,180,3.0,4.0,89,0.00,,,0.00,meteohub,2013-05-06 06:57:00,
2013-05-06 01:02:00,32.9,29.7,30.17,South,180,3.0,4.0,88,0.00,,,0.00,meteohub,2013-05-06 07:02:00,
2013-05-06 01:07:00,32.9,29.7,30.17,South,180,3.0,4.0,88,0.00,,,0.00,meteohub,2013-05-06 07:07:00,
2013-05-06 01:12:00,33.3,30.0,30.16,SW,225,2.0,3.0,88,0.00,,,0.00,meteohub,2013-05-06 07:12:00,
2013-05-06 01:17:00,33.4,30.2,30.15,SW,225,4.0,4.0,88,0.00,,,0.00,meteohub,2013-05-06 07:17:00,
2013-05-06 01:22:00,33.6,30.2,30.15,SW,225,2.0,4.0,87,0.00,,,0.00,meteohub,2013-05-06 07:22:00,
2013-05-06 01:27:00,33.4,30.0,30.15,SW,225,2.0,4.0,87,0.00,,,0.00,meteohub,2013-05-06 07:27:00,
2013-05-06 01:32:00,33.3,29.8,30.15,SW,225,2.0,4.0,87,0.00,,,0.00,meteohub,2013-05-06 07:32:00,
2013-05-06 01:42:00,32.7,29.3,30.16,SE,135,0.0,2.0,87,0.00,,,0.00,meteohub,2013-05-06 07:42:00,
2013-05-06 01:47:00,32.5,29.3,30.17,SW,225,2.0,2.0,88,0.00,,,0.00,meteohub,2013-05-06 07:47:00,
2013-05-06 01:52:00,32.7,29.5,30.15,SE,135,2.0,2.0,88,0.00,,,0.00,meteohub,2013-05-06 07:52:00,
2013-05-06 01:57:00,32.7,29.5,30.15,South,180,2.0,2.0,88,0.00,,,0.00,meteohub,2013-05-06 07:57:00,
2013-05-06 02:02:00,32.7,29.5,30.15,SW,225,2.0,2.0,88,0.00,,,0.00,meteohub,2013-05-06 08:02:00,
2013-05-06 02:07:00,32.7,29.5,30.15,SW,225,2.0,2.0,88,0.00,,,0.00,meteohub,2013-05-06 08:07:00,
2013-05-06 02:12:00,32.4,29.1,30.15,South,180,2.0,2.0,88,0.00,,,0.00,meteohub,2013-05-06 08:12:00,
2013-05-06 02:17:00,32.2,28.9,30.16,South,180,2.0,2.0,88,0.00,,,0.00,meteohub,2013-05-06 08:17:00,
2013-05-06 02:22:00,32.0,28.9,30.16,South,180,1.0,2.0,88,0.00,,,0.00,meteohub,2013-05-06 08:22:00,
2013-05-06 02:27:00,31.6,28.6,30.17,South,180,2.0,2.0,88,0.00,,,0.00,meteohub,2013-05-06 08:27:00,
2013-05-06 02:32:00,31.5,28.4,30.17,South,180,2.0,2.0,88,0.00,,,0.00,meteohub,2013-05-06 08:32:00,
2013-05-06 02:37:00,31.6,28.8,30.16,South,180,2.0,2.0,89,0.00,,,0.00,meteohub,2013-05-06 08:37:00,
2013-05-06 02:42:00,31.8,28.9,30.15,South,180,2.0,2.0,89,0.00,,,0.00,meteohub,2013-05-06 08:42:00,
2013-05-06 02:47:00,31.8,28.9,30.15,South,180,2.0,2.0,89,0.00,,,0.00,meteohub,2013-05-06 08:47:00,
2013-05-06 02:57:00,31.6,28.8,30.14,South,180,2.0,3.0,89,0.00,,,0.00,meteohub,2013-05-06 08:57:00,
2013-05-06 03:02:00,31.5,28.6,30.15,South,180,2.0,3.0,89,0.00,,,0.00,meteohub,2013-05-06 09:02:00,
2013-05-06 03:07:00,31.5,28.6,30.15,South,180,2.0,3.0,89,0.00,,,0.00,meteohub,2013-05-06 09:07:00,
2013-05-06 03:12:00,32.0,28.9,30.14,South,180,1.0,2.0,88,0.00,,,0.00,meteohub,2013-05-06 09:12:00,
2013-05-06 03:17:00,32.0,28.6,30.14,South,180,2.0,2.0,87,0.00,,,0.00,meteohub,2013-05-06 09:17:00,
2013-05-06 03:22:00,31.8,28.4,30.14,South,180,1.0,2.0,87,0.00,,,0.00,meteohub,2013-05-06 09:22:00,
2013-05-06 03:27:00,31.6,28.2,30.14,South,180,2.0,2.0,87,0.00,,,0.00,meteohub,2013-05-06 09:27:00,
2013-05-06 03:32:00,31.6,28.2,30.14,South,180,2.0,2.0,87,0.00,,,0.00,meteohub,2013-05-06 09:32:00,
2013-05-06 03:37:00,31.5,28.4,30.15,South,180,2.0,2.0,88,0.00,,,0.00,meteohub,2013-05-06 09:37:00,
2013-05-06 03:42:00,31.6,28.6,30.14,South,180,1.0,2.0,88,0.00,,,0.00,meteohub,2013-05-06 09:42:00,
2013-05-06 03:47:00,31.5,28.4,30.15,South,180,1.0,2.0,88,0.00,,,0.00,meteohub,2013-05-06 09:47:00,
2013-05-06 03:52:00,31.3,28.2,30.15,South,180,1.0,2.0,88,0.00,,,0.00,meteohub,2013-05-06 09:52:00,
2013-05-06 03:57:00,31.5,28.4,30.15,South,180,2.0,2.0,88,0.00,,,0.00,meteohub,2013-05-06 09:57:00,
2013-05-06 04:07:00,31.5,28.4,30.15,South,180,2.0,2.0,88,0.00,,,0.00,meteohub,2013-05-06 10:07:00,
2013-05-06 04:12:00,31.5,28.0,30.15,South,180,1.0,2.0,87,0.00,,,0.00,meteohub,2013-05-06 10:12:00,
2013-05-06 04:17:00,31.3,27.9,30.15,South,180,2.0,2.0,87,0.00,,,0.00,meteohub,2013-05-06 10:17:00,
2013-05-06 04:22:00,31.5,28.0,30.14,South,180,2.0,2.0,87,0.00,,,0.00,meteohub,2013-05-06 10:22:00,
2013-05-06 04:27:00,31.8,28.4,30.14,SW,225,4.0,4.0,87,0.00,,,0.00,meteohub,2013-05-06 10:27:00,
2013-05-06 04:32:00,32.5,28.6,30.12,SW,225,3.0,5.0,85,0.00,,,0.00,meteohub,2013-05-06 10:32:00,
2013-05-06 04:37:00,32.4,28.0,30.12,South,180,3.0,5.0,84,0.00,,,0.00,meteohub,2013-05-06 10:37:00,
2013-05-06 04:42:00,32.4,28.0,30.12,SW,225,2.0,5.0,84,0.00,,,0.00,meteohub,2013-05-06 10:42:00,
2013-05-06 04:47:00,32.2,28.2,30.12,SW,225,2.0,4.0,85,0.00,,,0.00,meteohub,2013-05-06 10:47:00,
2013-05-06 04:52:00,32.4,28.4,30.12,NW,315,1.0,4.0,85,0.00,,,0.00,meteohub,2013-05-06 10:52:00,
2013-05-06 04:57:00,32.4,28.4,30.12,West,270,2.0,3.0,85,0.00,,,0.00,meteohub,2013-05-06 10:57:00,
2013-05-06 05:02:00,32.4,28.4,30.12,South,180,2.0,2.0,85,0.00,,,0.00,meteohub,2013-05-06 11:02:00,
2013-05-06 05:07:00,32.4,28.4,30.12,South,180,2.0,2.0,85,0.00,,,0.00,meteohub,2013-05-06 11:07:00,
2013-05-06 05:12:00,32.5,28.6,30.12,SW,225,2.0,2.0,85,0.00,,,0.00,meteohub,2013-05-06 11:12:00,
2013-05-06 05:17:00,33.1,28.4,30.10,SW,225,3.0,3.0,83,0.00,,,0.00,meteohub,2013-05-06 11:17:00,
2013-05-06 05:22:00,33.8,28.6,30.09,SW,225,2.0,3.0,81,0.00,,,0.00,meteohub,2013-05-06 11:22:00,
2013-05-06 05:27:00,34.0,28.8,30.08,South,180,2.0,3.0,81,0.00,,,0.00,meteohub,2013-05-06 11:27:00,
2013-05-06 05:32:00,34.7,28.9,30.07,SW,225,3.0,4.0,79,0.00,,,0.00,meteohub,2013-05-06 11:32:00,
2013-05-06 05:37:00,35.1,28.6,30.06,South,180,2.0,4.0,77,0.00,,,0.00,meteohub,2013-05-06 11:37:00,
2013-05-06 05:42:00,34.7,28.6,30.09,North,0,1.0,4.0,78,0.00,,,0.00,meteohub,2013-05-06 11:42:00,
2013-05-06 05:47:00,33.8,28.2,30.10,West,270,1.0,4.0,80,0.00,,,0.00,meteohub,2013-05-06 11:47:00,
2013-05-06 05:52:00,33.4,28.2,30.10,SW,225,2.0,4.0,81,0.00,,,0.00,meteohub,2013-05-06 11:52:00,
2013-05-06 05:57:00,33.6,28.0,30.10,West,270,2.0,3.0,80,0.00,,,0.00,meteohub,2013-05-06 11:57:00,
2013-05-06 06:02:00,33.8,28.2,30.09,NW,315,2.0,3.0,80,0.00,,,0.00,meteohub,2013-05-06 12:02:00,
2013-05-06 06:07:00,33.8,28.2,30.09,NW,315,2.0,3.0,80,0.00,,,0.00,meteohub,2013-05-06 12:07:00,
2013-05-06 06:12:00,35.2,28.8,30.07,SE,135,2.0,3.0,77,0.00,,,0.00,meteohub,2013-05-06 12:12:00,
2013-05-06 06:17:00,36.0,29.1,30.06,SSE,158,1.0,2.0,76,0.00,,,0.00,meteohub,2013-05-06 12:17:00,
2013-05-06 06:22:00,36.3,29.5,30.06,NE,45,2.0,2.0,76,0.00,,,0.00,meteohub,2013-05-06 12:22:00,
2013-05-06 06:27:00,36.1,29.3,30.05,South,180,2.0,2.0,76,0.00,,,0.00,meteohub,2013-05-06 12:27:00,
2013-05-06 06:32:00,35.8,28.9,30.06,SW,225,2.0,2.0,76,0.00,,,0.00,meteohub,2013-05-06 12:32:00,
2013-05-06 06:37:00,36.0,28.4,30.06,SW,225,2.0,2.0,74,0.00,,,0.00,meteohub,2013-05-06 12:37:00,
2013-05-06 06:42:00,36.3,28.8,30.06,SW,225,1.0,3.0,74,0.00,,,0.00,meteohub,2013-05-06 12:42:00,
2013-05-06 06:52:00,36.7,29.1,30.05,South,180,2.0,3.0,74,0.00,,,0.00,meteohub,2013-05-06 12:52:00,
2013-05-06 06:57:00,37.0,28.6,30.05,SW,225,2.0,3.0,71,0.00,,,0.00,meteohub,2013-05-06 12:57:00,
2013-05-06 07:02:00,37.2,29.1,30.04,SW,225,2.0,3.0,72,0.00,,,0.00,meteohub,2013-05-06 13:02:00,
2013-05-06 07:07:00,37.2,29.1,30.04,SW,225,2.0,3.0,72,0.00,,,0.00,meteohub,2013-05-06 13:07:00,
2013-05-06 07:12:00,37.9,29.7,30.03,South,180,2.0,3.0,72,0.00,,,0.00,meteohub,2013-05-06 13:12:00,
2013-05-06 07:17:00,38.5,30.2,30.02,South,180,1.0,2.0,72,0.00,,,0.00,meteohub,2013-05-06 13:17:00,
2013-05-06 07:22:00,39.0,30.7,30.01,South,180,1.0,2.0,72,0.00,,,0.00,meteohub,2013-05-06 13:22:00,
2013-05-06 07:27:00,40.1,31.1,30.00,NE,45,2.0,2.0,70,0.00,,,0.00,meteohub,2013-05-06 13:27:00,
2013-05-06 07:32:00,41.4,32.0,29.98,NE,45,2.0,2.0,69,0.00,,,0.00,meteohub,2013-05-06 13:32:00,
2013-05-06 07:37:00,41.9,32.5,29.97,North,0,1.0,2.0,69,0.00,,,0.00,meteohub,2013-05-06 13:37:00,
2013-05-06 07:42:00,42.8,32.2,29.95,SW,225,2.0,2.0,66,0.00,,,0.00,meteohub,2013-05-06 13:42:00,
2013-05-06 07:47:00,43.0,32.7,29.95,SE,135,2.0,3.0,67,0.00,,,0.00,meteohub,2013-05-06 13:47:00,
2013-05-06 07:57:00,43.3,31.6,29.94,North,0,2.0,3.0,63,0.01,,,0.01,meteohub,2013-05-06 13:57:00,
2013-05-06 08:02:00,43.3,31.6,29.94,NE,45,3.0,3.0,63,0.01,,,0.01,meteohub,2013-05-06 14:02:00,
2013-05-06 08:07:00,43.3,31.6,29.94,NE,45,3.0,3.0,63,0.01,,,0.01,meteohub,2013-05-06 14:07:00,
2013-05-06 08:12:00,46.0,32.0,29.90,NE,45,3.0,3.0,58,0.02,,,0.02,meteohub,2013-05-06 14:12:00,
2013-05-06 08:17:00,47.8,32.9,29.87,NE,45,4.0,4.0,56,0.02,,,0.02,meteohub,2013-05-06 14:17:00,
2013-05-06 08:22:00,46.9,32.9,29.88,East,90,2.0,4.0,58,0.02,,,0.02,meteohub,2013-05-06 14:22:00,
2013-05-06 08:27:00,47.8,32.5,29.86,NE,45,3.0,5.0,55,0.04,,,0.04,meteohub,2013-05-06 14:27:00,
2013-05-06 08:32:00,48.6,32.2,29.85,North,0,3.0,5.0,53,0.04,,,0.04,meteohub,2013-05-06 14:32:00,
2013-05-06 08:37:00,49.1,32.2,29.84,NE,45,3.0,4.0,52,0.04,,,0.04,meteohub,2013-05-06 14:37:00,
2013-05-06 08:42:00,48.2,32.7,29.86,NE,45,4.0,7.0,55,0.04,,,0.04,meteohub,2013-05-06 14:42:00,
2013-05-06 08:47:00,48.2,33.6,29.86,NE,45,4.0,7.0,57,0.04,,,0.04,meteohub,2013-05-06 14:47:00,
2013-05-06 08:52:00,49.5,31.6,29.83,East,90,4.0,7.0,50,0.04,,,0.04,meteohub,2013-05-06 14:52:00,
2013-05-06 08:57:00,49.5,32.0,29.83,East,90,4.0,7.0,51,0.02,,,0.04,meteohub,2013-05-06 14:57:00,
2013-05-06 09:02:00,50.0,32.5,29.82,East,90,4.0,7.0,51,0.02,,,0.04,meteohub,2013-05-06 15:02:00,
2013-05-06 09:07:00,50.0,32.5,29.82,East,90,4.0,7.0,51,0.02,,,0.04,meteohub,2013-05-06 15:07:00,
2013-05-06 09:12:00,51.8,34.2,29.79,NE,45,4.0,6.0,51,0.01,,,0.04,meteohub,2013-05-06 15:12:00,
2013-05-06 09:17:00,51.4,34.0,29.80,ESE,113,6.0,6.0,51,0.01,,,0.04,meteohub,2013-05-06 15:17:00,
2013-05-06 09:22:00,52.0,31.8,29.79,SE,135,7.0,10.0,46,0.00,,,0.04,meteohub,2013-05-06 15:22:00,
2013-05-06 09:27:00,52.3,31.1,29.78,NE,45,4.0,10.0,44,0.00,,,0.04,meteohub,2013-05-06 15:27:00,
2013-05-06 09:32:00,52.7,32.5,29.78,SE,135,4.0,10.0,46,0.00,,,0.04,meteohub,2013-05-06 15:32:00,
2013-05-06 09:37:00,52.5,30.0,29.78,East,90,4.0,7.0,42,0.00,,,0.04,meteohub,2013-05-06 15:37:00,
2013-05-06 09:42:00,53.1,31.6,29.77,North,0,4.0,6.0,44,0.00,,,0.04,meteohub,2013-05-06 15:42:00,
2013-05-06 09:47:00,53.6,31.6,29.76,NW,315,4.0,6.0,43,0.00,,,0.04,meteohub,2013-05-06 15:47:00,
2013-05-06 09:52:00,53.8,31.3,29.75,East,90,1.0,7.0,42,0.00,,,0.04,meteohub,2013-05-06 15:52:00,
2013-05-06 09:57:00,53.8,30.6,29.75,NW,315,4.0,7.0,41,0.00,,,0.04,meteohub,2013-05-06 15:57:00,
2013-05-06 10:07:00,53.2,31.3,29.76,NE,45,5.0,8.0,43,0.00,,,0.04,meteohub,2013-05-06 16:07:00,
2013-05-06 10:12:00,52.3,32.7,29.78,NE,45,6.0,6.0,47,0.00,,,0.04,meteohub,2013-05-06 16:12:00,
2013-05-06 10:17:00,51.1,33.1,29.80,East,90,4.0,7.0,50,0.00,,,0.04,meteohub,2013-05-06 16:17:00,
2013-05-06 10:22:00,50.5,32.0,29.81,ENE,68,8.0,8.0,49,0.00,,,0.04,meteohub,2013-05-06 16:22:00,
2013-05-06 10:27:00,49.6,31.3,29.83,SE,135,5.0,8.0,49,0.00,,,0.04,meteohub,2013-05-06 16:27:00,
2013-05-06 10:32:00,49.1,31.3,29.85,NE,45,6.0,9.0,50,0.00,,,0.04,meteohub,2013-05-06 16:32:00,
2013-05-06 10:37:00,49.1,30.7,29.85,East,90,5.0,9.0,49,0.00,,,0.04,meteohub,2013-05-06 16:37:00,
2013-05-06 10:42:00,48.7,29.8,29.86,East,90,7.0,9.0,48,0.00,,,0.04,meteohub,2013-05-06 16:42:00,
2013-05-06 10:47:00,48.7,30.9,29.86,NE,45,8.0,8.0,50,0.00,,,0.04,meteohub,2013-05-06 16:47:00,
2013-05-06 10:52:00,48.9,32.5,29.85,NE,45,4.0,8.0,53,0.00,,,0.04,meteohub,2013-05-06 16:52:00,
2013-05-06 10:57:00,49.6,32.2,29.84,East,90,3.0,8.0,51,0.00,,,0.04,meteohub,2013-05-06 16:57:00,
2013-05-06 11:02:00,49.6,32.2,29.84,East,90,6.0,8.0,51,0.00,,,0.04,meteohub,2013-05-06 17:02:00,
2013-05-06 11:07:00,49.6,32.2,29.84,East,90,6.0,6.0,51,0.00,,,0.04,meteohub,2013-05-06 17:07:00,
2013-05-06 11:12:00,49.6,31.8,29.84,East,90,2.0,6.0,50,0.00,,,0.04,meteohub,2013-05-06 17:12:00,
2013-05-06 11:17:00,50.4,32.4,29.83,East,90,2.0,6.0,50,0.00,,,0.04,meteohub,2013-05-06 17:17:00,
2013-05-06 11:22:00,50.7,32.2,29.82,NE,45,4.0,6.0,49,0.00,,,0.04,meteohub,2013-05-06 17:22:00,
2013-05-06 11:32:00,50.5,32.5,29.83,NE,45,4.0,4.0,50,0.00,,,0.04,meteohub,2013-05-06 17:32:00,
2013-05-06 11:37:00,49.8,32.4,29.84,NE,45,6.0,6.0,51,0.00,,,0.04,meteohub,2013-05-06 17:37:00,
2013-05-06 11:42:00,49.8,32.9,29.84,East,90,2.0,6.0,52,0.00,,,0.04,meteohub,2013-05-06 17:42:00,
2013-05-06 11:47:00,50.2,32.7,29.83,SW,225,2.0,6.0,51,0.00,,,0.04,meteohub,2013-05-06 17:47:00,
2013-05-06 11:52:00,50.4,29.3,29.83,West,270,2.0,6.0,44,0.00,,,0.04,meteohub,2013-05-06 17:52:00,
2013-05-06 11:57:00,50.2,29.1,29.83,NW,315,4.0,9.0,44,0.00,,,0.04,meteohub,2013-05-06 17:57:00,
2013-05-06 12:07:00,50.7,29.1,29.82,NW,315,7.0,9.0,43,0.00,,,0.04,meteohub,2013-05-06 18:07:00,
2013-05-06 12:12:00,51.6,28.0,29.80,West,270,4.0,7.0,40,0.00,,,0.04,meteohub,2013-05-06 18:12:00,
2013-05-06 12:17:00,51.6,29.8,29.80,NW,315,2.0,7.0,43,0.00,,,0.04,meteohub,2013-05-06 18:17:00,
2013-05-06 12:22:00,52.3,28.8,29.78,North,0,4.0,7.0,40,0.00,,,0.04,meteohub,2013-05-06 18:22:00,
2013-05-06 12:27:00,52.2,28.6,29.79,South,180,7.0,8.0,40,0.00,,,0.04,meteohub,2013-05-06 18:27:00,
2013-05-06 12:32:00,51.3,28.4,29.80,SE,135,4.0,8.0,41,0.00,,,0.04,meteohub,2013-05-06 18:32:00,
2013-05-06 12:37:00,51.1,28.2,29.80,SSW,203,8.0,8.0,41,0.00,,,0.04,meteohub,2013-05-06 18:37:00,
2013-05-06 12:42:00,50.9,28.6,29.80,SW,225,4.0,9.0,42,0.00,,,0.04,meteohub,2013-05-06 18:42:00,
2013-05-06 12:47:00,50.4,28.8,29.81,SW,225,3.0,11.0,43,0.00,,,0.04,meteohub,2013-05-06 18:47:00,
2013-05-06 12:52:00,50.2,28.0,29.81,SE,135,10.0,11.0,42,0.00,,,0.04,meteohub,2013-05-06 18:52:00,
2013-05-06 12:57:00,50.2,27.3,29.81,SE,135,11.0,11.0,41,0.00,,,0.04,meteohub,2013-05-06 18:57:00,
2013-05-06 13:02:00,50.2,28.0,29.81,SW,225,5.0,11.0,42,0.00,,,0.04,meteohub,2013-05-06 19:02:00,
2013-05-06 13:07:00,50.2,28.0,29.80,SW,225,5.0,11.0,42,0.00,,,0.04,meteohub,2013-05-06 19:07:00,
2013-05-06 13:12:00,53.6,25.2,29.74,SE,135,5.0,11.0,33,0.00,,,0.04,meteohub,2013-05-06 19:12:00,
2013-05-06 13:17:00,54.0,25.5,29.74,ENE,68,4.0,7.0,33,0.00,,,0.04,meteohub,2013-05-06 19:17:00,
2013-05-06 13:27:00,53.8,26.1,29.74,ESE,113,4.0,11.0,34,0.00,,,0.04,meteohub,2013-05-06 19:27:00,
2013-05-06 13:32:00,54.7,28.2,29.72,NE,45,4.0,11.0,36,0.00,,,0.04,meteohub,2013-05-06 19:32:00,
2013-05-06 13:37:00,55.2,28.8,29.71,NNW,338,4.0,11.0,36,0.00,,,0.04,meteohub,2013-05-06 19:37:00,
2013-05-06 13:42:00,55.6,30.4,29.69,NE,45,8.0,8.0,38,0.00,,,0.04,meteohub,2013-05-06 19:42:00,
2013-05-06 13:47:00,55.6,29.1,29.69,North,0,4.0,8.0,36,0.00,,,0.04,meteohub,2013-05-06 19:47:00,
2013-05-06 13:52:00,56.5,30.6,29.68,East,90,5.0,8.0,37,0.00,,,0.04,meteohub,2013-05-06 19:52:00,
2013-05-06 13:57:00,56.5,30.6,29.67,NE,45,4.0,9.0,37,0.00,,,0.04,meteohub,2013-05-06 19:57:00,
2013-05-06 14:02:00,55.9,30.0,29.68,NE,45,7.0,9.0,37,0.00,,,0.04,meteohub,2013-05-06 20:02:00,
2013-05-06 14:07:00,55.9,30.0,29.68,NE,45,7.0,9.0,37,0.00,,,0.04,meteohub,2013-05-06 20:07:00,
2013-05-06 14:12:00,54.0,30.7,29.71,East,90,5.0,8.0,41,0.00,,,0.04,meteohub,2013-05-06 20:12:00,
2013-05-06 14:17:00,53.4,32.5,29.72,NNE,23,7.0,8.0,45,0.00,,,0.04,meteohub,2013-05-06 20:17:00,
2013-05-06 14:22:00,53.1,32.4,29.73,NE,45,4.0,8.0,45,0.00,,,0.04,meteohub,2013-05-06 20:22:00,
2013-05-06 14:27:00,52.5,31.8,29.74,East,90,7.0,11.0,45,0.00,,,0.04,meteohub,2013-05-06 20:27:00,
2013-05-06 14:32:00,52.9,32.7,29.73,ESE,113,8.0,11.0,46,0.00,,,0.04,meteohub,2013-05-06 20:32:00,
2013-05-06 14:37:00,52.9,31.6,29.73,North,0,9.0,10.0,44,0.00,,,0.04,meteohub,2013-05-06 20:37:00,
2013-05-06 14:42:00,53.4,32.0,29.72,North,0,6.0,11.0,44,0.00,,,0.04,meteohub,2013-05-06 20:42:00,
2013-05-06 14:47:00,53.2,31.8,29.72,East,90,12.0,12.0,44,0.00,,,0.04,meteohub,2013-05-06 20:47:00,
2013-05-06 14:57:00,52.2,33.1,29.75,NE,45,6.0,13.0,48,0.00,,,0.04,meteohub,2013-05-06 20:57:00,
2013-05-06 15:02:00,52.2,32.5,29.75,NE,45,8.0,12.0,47,0.00,,,0.04,meteohub,2013-05-06 21:02:00,
2013-05-06 15:07:00,52.2,32.5,29.74,NE,45,8.0,13.0,47,0.00,,,0.04,meteohub,2013-05-06 21:07:00,
2013-05-06 15:12:00,51.4,32.4,29.75,NNW,338,7.0,13.0,48,0.00,,,0.04,meteohub,2013-05-06 21:12:00,
2013-05-06 15:17:00,51.8,32.2,29.75,North,0,8.0,8.0,47,0.00,,,0.04,meteohub,2013-05-06 21:17:00,
2013-05-06 15:22:00,51.6,32.0,29.74,NW,315,8.0,8.0,47,0.00,,,0.04,meteohub,2013-05-06 21:22:00,
2013-05-06 15:27:00,51.3,32.2,29.75,North,0,5.0,11.0,48,0.00,,,0.04,meteohub,2013-05-06 21:27:00,
2013-05-06 15:37:00,50.0,31.6,29.77,SE,135,4.0,10.0,49,0.00,,,0.04,meteohub,2013-05-06 21:37:00,
2013-05-06 15:42:00,50.2,30.7,29.77,SE,135,8.0,9.0,47,0.00,,,0.04,meteohub,2013-05-06 21:42:00,
2013-05-06 15:47:00,49.6,31.3,29.78,SW,225,3.0,11.0,49,0.00,,,0.04,meteohub,2013-05-06 21:47:00,
2013-05-06 15:52:00,49.8,30.9,29.78,ESE,113,6.0,11.0,48,0.00,,,0.04,meteohub,2013-05-06 21:52:00,
2013-05-06 15:57:00,49.6,29.7,29.78,ENE,68,6.0,11.0,46,0.00,,,0.04,meteohub,2013-05-06 21:57:00,
2013-05-06 16:02:00,49.5,30.6,29.78,NE,45,6.0,7.0,48,0.00,,,0.04,meteohub,2013-05-06 22:02:00,
2013-05-06 16:07:00,49.5,30.6,29.79,NE,45,6.0,7.0,48,0.00,,,0.04,meteohub,2013-05-06 22:07:00,
2013-05-06 16:12:00,50.0,28.9,29.78,SE,135,4.0,7.0,44,0.00,,,0.04,meteohub,2013-05-06 22:12:00,
2013-05-06 16:17:00,50.0,30.0,29.78,South,180,4.0,9.0,46,0.00,,,0.04,meteohub,2013-05-06 22:17:00,
2013-05-06 16:22:00,50.2,29.7,29.77,NE,45,4.0,9.0,45,0.00,,,0.04,meteohub,2013-05-06 22:22:00,
2013-05-06 16:27:00,50.4,30.4,29.77,North,0,7.0,8.0,46,0.00,,,0.04,meteohub,2013-05-06 22:27:00,
2013-05-06 16:37:00,49.8,29.3,29.78,ESE,113,8.0,8.0,45,0.00,,,0.04,meteohub,2013-05-06 22:37:00,
2013-05-06 16:42:00,49.6,29.1,29.78,SE,135,3.0,8.0,45,0.00,,,0.04,meteohub,2013-05-06 22:42:00,
2013-05-06 16:47:00,49.5,30.6,29.78,NW,315,3.0,8.0,48,0.00,,,0.04,meteohub,2013-05-06 22:47:00,
2013-05-06 16:52:00,49.3,30.4,29.78,NW,315,4.0,8.0,48,0.00,,,0.04,meteohub,2013-05-06 22:52:00,
2013-05-06 16:57:00,49.3,31.5,29.78,NE,45,3.0,6.0,50,0.00,,,0.04,meteohub,2013-05-06 22:57:00,
2013-05-06 17:07:00,49.1,30.7,29.78,NE,45,0.0,4.0,49,0.00,,,0.04,meteohub,2013-05-06 23:07:00,
2013-05-06 17:12:00,48.7,30.4,29.79,North,0,3.0,4.0,49,0.00,,,0.04,meteohub,2013-05-06 23:12:00,
2013-05-06 17:17:00,48.7,29.8,29.79,North,0,3.0,4.0,48,0.00,,,0.04,meteohub,2013-05-06 23:17:00,
2013-05-06 17:22:00,48.6,30.7,29.79,NE,45,2.0,4.0,50,0.00,,,0.04,meteohub,2013-05-06 23:22:00,
2013-05-06 17:27:00,48.6,29.8,29.79,NE,45,4.0,5.0,48,0.00,,,0.04,meteohub,2013-05-06 23:27:00,
2013-05-06 17:32:00,48.4,29.7,29.79,NE,45,5.0,6.0,48,0.00,,,0.04,meteohub,2013-05-06 23:32:00,
2013-05-06 17:37:00,48.2,30.4,29.79,NNE,23,2.0,6.0,50,0.00,,,0.04,meteohub,2013-05-06 23:37:00,
2013-05-06 17:42:00,48.4,30.0,29.79,NW,315,4.0,6.0,49,0.00,,,0.04,meteohub,2013-05-06 23:42:00,
2013-05-06 17:47:00,48.2,31.5,29.80,North,0,2.0,5.0,52,0.00,,,0.04,meteohub,2013-05-06 23:47:00,
2013-05-06 17:52:00,48.0,31.6,29.80,NE,45,2.0,4.0,53,0.00,,,0.04,meteohub,2013-05-06 23:52:00,
2013-05-06 17:57:00,47.8,30.6,29.80,North,0,2.0,4.0,51,0.00,,,0.04,meteohub,2013-05-06 23:57:00,
2013-05-06 18:02:00,47.8,30.6,29.80,NE,45,2.0,4.0,51,0.00,,,0.04,meteohub,2013-05-07 00:02:00,
2013-05-06 18:07:00,47.8,30.6,29.79,NE,45,2.0,3.0,51,0.00,,,0.04,meteohub,2013-05-07 00:07:00,
2013-05-06 18:12:00,47.3,30.6,29.80,North,0,2.0,3.0,52,0.00,,,0.04,meteohub,2013-05-07 00:12:00,
2013-05-06 18:17:00,47.3,30.6,29.80,NE,45,1.0,3.0,52,0.00,,,0.04,meteohub,2013-05-07 00:17:00,
2013-05-06 18:22:00,47.3,30.6,29.80,NW,315,2.0,3.0,52,0.00,,,0.04,meteohub,2013-05-07 00:22:00,
2013-05-06 18:27:00,47.1,30.4,29.81,NE,45,2.0,2.0,52,0.00,,,0.04,meteohub,2013-05-07 00:27:00,
2013-05-06 18:32:00,46.9,30.2,29.81,North,0,2.0,2.0,52,0.00,,,0.04,meteohub,2013-05-07 00:32:00,
2013-05-06 18:37:00,46.9,31.1,29.81,NE,45,1.0,2.0,54,0.00,,,0.04,meteohub,2013-05-07 00:37:00,
2013-05-06 18:42:00,46.9,31.1,29.80,North,0,0.0,2.0,54,0.00,,,0.04,meteohub,2013-05-07 00:42:00,
2013-05-06 18:47:00,46.8,30.9,29.81,East,90,1.0,2.0,54,0.00,,,0.04,meteohub,2013-05-07 00:47:00,
2013-05-06 18:52:00,46.8,31.5,29.81,North,0,0.0,2.0,55,0.00,,,0.04,meteohub,2013-05-07 00:52:00,
2013-05-06 18:57:00,46.6,31.6,29.81,NW,315,1.0,2.0,56,0.00,,,0.04,meteohub,2013-05-07 00:57:00,
2013-05-06 19:02:00,46.2,31.5,29.82,NW,315,0.0,2.0,56,0.00,,,0.04,meteohub,2013-05-07 01:02:00,
2013-05-06 19:07:00,46.2,31.5,29.82,NW,315,0.0,2.0,56,0.00,,,0.04,meteohub,2013-05-07 01:07:00,
2013-05-06 19:12:00,45.3,30.9,29.83,South,180,0.0,2.0,57,0.00,,,0.04,meteohub,2013-05-07 01:12:00,
2013-05-06 19:17:00,45.1,30.7,29.83,South,180,0.0,0.0,57,0.00,,,0.04,meteohub,2013-05-07 01:17:00,
2013-05-06 19:22:00,44.8,32.2,29.84,South,180,0.0,0.0,61,0.00,,,0.04,meteohub,2013-05-07 01:22:00,
2013-05-06 19:27:00,44.6,32.0,29.84,South,180,0.0,0.0,61,0.00,,,0.04,meteohub,2013-05-07 01:27:00,
2013-05-06 19:32:00,44.2,31.6,29.85,South,180,0.0,0.0,61,0.00,,,0.04,meteohub,2013-05-07 01:32:00,
2013-05-06 19:37:00,43.9,31.6,29.86,South,180,0.0,0.0,62,0.00,,,0.04,meteohub,2013-05-07 01:37:00,
2013-05-06 19:47:00,43.5,31.8,29.86,SW,225,0.0,0.0,63,0.00,,,0.04,meteohub,2013-05-07 01:47:00,
2013-05-06 19:52:00,43.0,31.3,29.88,SW,225,0.0,0.0,63,0.00,,,0.04,meteohub,2013-05-07 01:52:00,
2013-05-06 20:02:00,42.4,31.5,29.88,SW,225,0.0,0.0,65,0.00,,,0.04,meteohub,2013-05-07 02:02:00,
2013-05-06 20:12:00,41.9,31.5,29.90,SW,225,2.0,2.0,66,0.00,,,0.04,meteohub,2013-05-07 02:12:00,
2013-05-06 20:17:00,41.5,30.7,29.91,SW,225,2.0,2.0,65,0.00,,,0.04,meteohub,2013-05-07 02:17:00,
2013-05-06 20:22:00,41.5,31.1,29.90,SW,225,2.0,2.0,66,0.00,,,0.04,meteohub,2013-05-07 02:22:00,
2013-05-06 20:32:00,41.2,30.4,29.91,SW,225,2.0,2.0,65,0.00,,,0.04,meteohub,2013-05-07 02:32:00,
2013-05-06 20:37:00,41.0,30.6,29.91,South,180,2.0,3.0,66,0.00,,,0.04,meteohub,2013-05-07 02:37:00,
2013-05-06 20:42:00,41.0,30.9,29.92,South,180,2.0,3.0,67,0.00,,,0.04,meteohub,2013-05-07 02:42:00,
2013-05-06 20:47:00,40.8,30.7,29.93,South,180,2.0,3.0,67,0.00,,,0.04,meteohub,2013-05-07 02:47:00,
2013-05-06 20:52:00,40.6,30.9,29.92,South,180,2.0,2.0,68,0.00,,,0.04,meteohub,2013-05-07 02:52:00,
2013-05-06 20:57:00,40.5,30.7,29.92,South,180,2.0,2.0,68,0.00,,,0.04,meteohub,2013-05-07 02:57:00,
2013-05-06 21:02:00,40.5,30.4,29.92,SSW,203,2.0,2.0,67,0.00,,,0.04,meteohub,2013-05-07 03:02:00,
2013-05-06 21:07:00,40.5,30.4,29.93,SSW,203,2.0,2.0,67,0.00,,,0.04,meteohub,2013-05-07 03:07:00,
2013-05-06 21:12:00,40.3,30.6,29.93,South,180,2.0,2.0,68,0.00,,,0.04,meteohub,2013-05-07 03:12:00,
2013-05-06 21:17:00,40.1,30.4,29.94,South,180,2.0,2.0,68,0.00,,,0.04,meteohub,2013-05-07 03:17:00,
2013-05-06 21:22:00,39.9,30.2,29.94,South,180,0.0,2.0,68,0.00,,,0.04,meteohub,2013-05-07 03:22:00,
2013-05-06 21:27:00,39.7,30.0,29.94,West,270,2.0,2.0,68,0.00,,,0.04,meteohub,2013-05-07 03:27:00,
2013-05-06 21:32:00,39.9,29.8,29.95,SW,225,2.0,2.0,67,0.00,,,0.04,meteohub,2013-05-07 03:32:00,
2013-05-06 21:37:00,40.3,29.8,29.94,NW,315,3.0,3.0,66,0.00,,,0.04,meteohub,2013-05-07 03:37:00,
2013-05-06 21:42:00,40.6,29.8,29.93,NW,315,2.0,3.0,65,0.00,,,0.04,meteohub,2013-05-07 03:42:00,
2013-05-06 21:47:00,41.0,29.8,29.93,North,0,3.0,3.0,64,0.00,,,0.04,meteohub,2013-05-07 03:47:00,
2013-05-06 21:52:00,41.2,29.5,29.92,West,270,1.0,3.0,63,0.00,,,0.04,meteohub,2013-05-07 03:52:00,
2013-05-06 21:57:00,41.2,29.5,29.92,NW,315,2.0,3.0,63,0.00,,,0.04,meteohub,2013-05-07 03:57:00,
2013-05-06 22:02:00,41.4,29.7,29.92,NW,315,1.0,3.0,63,0.00,,,0.04,meteohub,2013-05-07 04:02:00,
2013-05-06 22:07:00,41.4,29.7,29.92,NW,315,1.0,2.0,63,0.00,,,0.04,meteohub,2013-05-07 04:07:00,
2013-05-06 22:12:00,41.0,30.6,29.92,SW,225,2.0,2.0,66,0.00,,,0.04,meteohub,2013-05-07 04:12:00,
2013-05-06 22:22:00,40.6,30.2,29.93,South,180,3.0,3.0,66,0.00,,,0.04,meteohub,2013-05-07 04:22:00,
2013-05-06 22:27:00,40.5,30.4,29.93,South,180,2.0,3.0,67,0.00,,,0.04,meteohub,2013-05-07 04:27:00,
2013-05-06 22:37:00,39.7,30.4,29.94,South,180,2.0,3.0,69,0.00,,,0.04,meteohub,2013-05-07 04:37:00,
2013-05-06 22:47:00,39.4,30.0,29.95,South,180,2.0,2.0,69,0.00,,,0.04,meteohub,2013-05-07 04:47:00,
2013-05-06 22:52:00,39.0,29.7,29.95,South,180,0.0,2.0,69,0.00,,,0.04,meteohub,2013-05-07 04:52:00,
2013-05-06 22:57:00,38.8,29.8,29.96,South,180,2.0,2.0,70,0.00,,,0.04,meteohub,2013-05-07 04:57:00,
2013-05-06 23:02:00,38.7,29.7,29.96,South,180,2.0,2.0,70,0.00,,,0.04,meteohub,2013-05-07 05:02:00,
2013-05-06 23:12:00,38.7,29.7,29.96,South,180,2.0,2.0,70,0.00,,,0.04,meteohub,2013-05-07 05:12:00,
2013-05-06 23:17:00,38.5,29.8,29.96,SW,225,2.0,2.0,71,0.00,,,0.04,meteohub,2013-05-07 05:17:00,
2013-05-06 23:22:00,38.1,29.5,29.97,West,270,2.0,2.0,71,0.00,,,0.04,meteohub,2013-05-07 05:22:00,
2013-05-06 23:27:00,37.8,29.5,29.99,SW,225,2.0,2.0,72,0.00,,,0.04,meteohub,2013-05-07 05:27:00,
2013-05-06 23:32:00,37.8,29.1,29.98,SW,225,2.0,3.0,71,0.00,,,0.04,meteohub,2013-05-07 05:32:00,
2013-05-06 23:42:00,37.9,29.7,29.98,SW,225,2.0,3.0,72,0.00,,,0.04,meteohub,2013-05-07 05:42:00,
2013-05-06 23:47:00,37.9,29.1,29.97,SW,225,2.0,3.0,70,0.00,,,0.04,meteohub,2013-05-07 05:47:00,
2013-05-06 23:57:00,37.9,29.3,29.98,SW,225,3.0,3.0,71,0.00,,,0.04,meteohub,2013-05-07 05:57:00,